createdAt,value
2023-03-29T00:00:36.643Z,100525.53
2023-03-29T00:01:41.986Z,100527.25
2023-03-29T00:02:48.274Z,100524.53
2023-03-29T00:03:51.811Z,100523.50
2023-03-29T00:04:54.638Z,100516.97
2023-03-29T00:06:02.997Z,100513.06
2023-03-29T00:07:05.949Z,100509.31
2023-03-29T00:08:08.138Z,100504.50
2023-03-29T00:09:11.291Z,100502.63
2023-03-29T00:10:13.349Z,100497.16
2023-03-29T00:11:16.103Z,100489.97
2023-03-29T00:12:17.750Z,100493.75
2023-03-29T00:13:20.425Z,100492.06
2023-03-29T00:14:23.069Z,100491.22
2023-03-29T00:15:25.060Z,100494.97
2023-03-29T00:16:28.249Z,100489.50
2023-03-29T00:17:30.230Z,100499.41
2023-03-29T00:18:34.376Z,100489.97
2023-03-29T00:19:36.739Z,100482.66
2023-03-29T00:20:39.418Z,100482.47
2023-03-29T00:21:41.117Z,100474.94
2023-03-29T00:22:46.652Z,100467.59
2023-03-29T00:23:48.337Z,100460.25
2023-03-29T00:24:54.087Z,100464.00
2023-03-29T00:25:56.032Z,100465.22
2023-03-29T00:26:58.754Z,100467.28
2023-03-29T00:28:00.511Z,100470.38
2023-03-29T00:29:03.240Z,100474.34
2023-03-29T00:30:06.985Z,100467.16
2023-03-29T00:31:11.706Z,100464.78
2023-03-29T00:32:13.726Z,100466.66
2023-03-29T00:33:16.391Z,100465.81
2023-03-29T00:34:19.607Z,100468.56
2023-03-29T00:35:22.337Z,100460.38
2023-03-29T00:36:24.067Z,100464.13
2023-03-29T00:37:26.884Z,100457.63
2023-03-29T00:38:28.752Z,100463.91
2023-03-29T00:39:32.039Z,100462.25
2023-03-29T00:40:34.433Z,100464.78
2023-03-29T00:41:37.214Z,100462.03
2023-03-29T00:42:38.961Z,100457.09
2023-03-29T00:43:56.413Z,100453.31
2023-03-29T00:45:02.181Z,100455.22
2023-03-29T00:46:05.367Z,100457.75
2023-03-29T00:47:07.249Z,100459.47
2023-03-29T00:48:12.259Z,100456.72
2023-03-29T00:49:14.115Z,100463.03
2023-03-29T00:50:22.296Z,100461.81
2023-03-29T00:51:25.550Z,100459.78
2023-03-29T00:52:30.235Z,100459.59
2023-03-29T00:53:34.217Z,100461.09
2023-03-29T00:54:37.917Z,100455.47
2023-03-29T00:55:42.926Z,100456.13
2023-03-29T00:56:47.464Z,100453.22
2023-03-29T00:57:50.069Z,100447.59
2023-03-29T00:58:55.191Z,100453.91
2023-03-29T00:59:57.331Z,100452.03
2023-03-29T01:01:03.225Z,100448.06
2023-03-29T01:02:07.054Z,100458.81
2023-03-29T01:03:13.686Z,100460.50
2023-03-29T01:04:19.434Z,100460.34
2023-03-29T01:05:29.486Z,100459.31
2023-03-29T01:06:34.305Z,100458.28
2023-03-29T01:07:42.219Z,100459.78
2023-03-29T01:08:45.416Z,100455.19
2023-03-29T01:10:00.732Z,100446.13
2023-03-29T01:11:07.113Z,100448.00
2023-03-29T01:12:12.334Z,100444.41
2023-03-29T01:13:18.457Z,100436.22
2023-03-29T01:14:26.533Z,100435.41
2023-03-29T01:15:28.953Z,100434.53
2023-03-29T01:16:33.001Z,100440.00
2023-03-29T01:17:34.827Z,100439.31
2023-03-29T01:18:37.664Z,100437.63
2023-03-29T01:19:42.321Z,100433.00
2023-03-29T01:20:57.861Z,100432.16
2023-03-29T01:22:02.596Z,100426.69
2023-03-29T01:23:17.312Z,100429.41
2023-03-29T01:24:41.844Z,100431.50
2023-03-29T01:25:48.960Z,100432.34
2023-03-29T01:26:56.762Z,100434.25
2023-03-29T01:28:02.675Z,100434.25
2023-03-29T01:29:09.584Z,100428.78
2023-03-29T01:30:14.116Z,100426.69
2023-03-29T01:31:20.917Z,100425.66
2023-03-29T01:32:26.989Z,100416.63
2023-03-29T01:33:32.613Z,100430.97
2023-03-29T01:34:38.367Z,100429.09
2023-03-29T01:35:43.788Z,100428.22
2023-03-29T01:36:50.106Z,100423.78
2023-03-29T01:37:56.703Z,100415.59
2023-03-29T01:38:59.874Z,100421.91
2023-03-29T01:40:04.930Z,100414.06
2023-03-29T01:41:07.938Z,100423.09
2023-03-29T01:42:30.997Z,100405.84
2023-03-29T01:43:37.199Z,100408.78
2023-03-29T01:44:47.392Z,100406.06
2023-03-29T01:45:54.766Z,100398.91
2023-03-29T01:47:04.428Z,100402.66
2023-03-29T01:48:10.494Z,100402.00
2023-03-29T01:49:14.870Z,100396.72
2023-03-29T01:50:20.435Z,100398.59
2023-03-29T01:51:25.870Z,100392.44
2023-03-29T01:52:33.015Z,100391.78
2023-03-29T01:53:37.955Z,100393.00
2023-03-29T01:54:44.575Z,100388.59
2023-03-29T01:55:51.247Z,100394.22
2023-03-29T01:56:54.468Z,100386.88
2023-03-29T01:57:56.661Z,100376.13
2023-03-29T01:59:05.144Z,100383.28
2023-03-29T02:00:10.239Z,100379.72
2023-03-29T02:01:17.667Z,100380.56
2023-03-29T02:02:20.995Z,100382.44
2023-03-29T02:03:26.619Z,100385.16
2023-03-29T02:04:31.483Z,100385.84
2023-03-29T02:05:34.917Z,100385.84
2023-03-29T02:06:38.025Z,100382.06
2023-03-29T02:07:41.973Z,100385.66
2023-03-29T02:08:43.884Z,100385.66
2023-03-29T02:09:48.862Z,100383.75
2023-03-29T02:10:51.752Z,100383.75
2023-03-29T02:11:54.980Z,100380.00
2023-03-29T02:12:56.727Z,100370.97
2023-03-29T02:14:00.793Z,100375.41
2023-03-29T02:15:02.871Z,100370.09
2023-03-29T02:16:12.131Z,100375.56
2023-03-29T02:17:18.392Z,100370.09
2023-03-29T02:18:21.429Z,100375.56
2023-03-29T02:19:25.048Z,100373.69
2023-03-29T02:20:31.793Z,100372.84
2023-03-29T02:21:39.000Z,100375.56
2023-03-29T02:22:48.914Z,100371.13
2023-03-29T02:23:54.746Z,100371.13
2023-03-29T02:24:59.393Z,100371.13
2023-03-29T02:26:02.103Z,100365.66
2023-03-29T02:27:05.444Z,100368.41
2023-03-29T02:28:07.708Z,100368.22
2023-03-29T02:29:12.246Z,100366.34
2023-03-29T02:30:17.114Z,100370.97
2023-03-29T02:31:23.539Z,100366.34
2023-03-29T02:32:27.478Z,100360.22
2023-03-29T02:33:33.296Z,100365.66
2023-03-29T02:34:37.641Z,100359.56
2023-03-29T02:35:45.832Z,100357.00
2023-03-29T02:36:50.467Z,100355.28
2023-03-29T02:37:54.797Z,100353.78
2023-03-29T02:38:58.853Z,100354.81
2023-03-29T02:40:01.762Z,100350.38
2023-03-29T02:41:04.350Z,100355.84
2023-03-29T02:42:07.678Z,100349.72
2023-03-29T02:43:09.977Z,100350.59
2023-03-29T02:44:15.728Z,100348.72
2023-03-29T02:45:18.487Z,100350.59
2023-03-29T02:46:22.078Z,100352.47
2023-03-29T02:47:29.107Z,100346.16
2023-03-29T02:48:32.622Z,100337.28
2023-03-29T02:49:34.535Z,100334.75
2023-03-29T02:50:38.469Z,100328.44
2023-03-29T02:51:41.203Z,100324.84
2023-03-29T02:52:47.124Z,100325.00
2023-03-29T02:53:52.558Z,100327.06
2023-03-29T02:54:56.004Z,100320.94
2023-03-29T02:56:02.251Z,100316.50
2023-03-29T02:57:06.488Z,100317.50
2023-03-29T02:58:09.329Z,100309.69
2023-03-29T02:59:12.070Z,100318.06
2023-03-29T03:00:20.171Z,100323.72
2023-03-29T03:01:22.984Z,100327.47
2023-03-29T03:02:27.808Z,100328.50
2023-03-29T03:03:31.788Z,100329.34
2023-03-29T03:04:35.477Z,100328.50
2023-03-29T03:05:38.799Z,100324.75
2023-03-29T03:06:40.958Z,100323.91
2023-03-29T03:07:43.746Z,100325.59
2023-03-29T03:08:45.658Z,100320.13
2023-03-29T03:09:48.992Z,100321.00
2023-03-29T03:10:50.671Z,100316.38
2023-03-29T03:11:53.396Z,100320.78
2023-03-29T03:12:55.136Z,100316.19
2023-03-29T03:13:57.831Z,100316.00
2023-03-29T03:14:59.578Z,100325.22
2023-03-29T03:16:03.641Z,100321.47
2023-03-29T03:17:05.506Z,100316.00
2023-03-29T03:18:08.220Z,100324.19
2023-03-29T03:19:10.537Z,100318.56
2023-03-29T03:20:14.060Z,100322.16
2023-03-29T03:21:15.810Z,100317.50
2023-03-29T03:22:18.496Z,100319.41
2023-03-29T03:23:20.169Z,100326.56
2023-03-29T03:24:23.071Z,100322.81
2023-03-29T03:25:24.891Z,100325.53
2023-03-29T03:26:30.199Z,100319.22
2023-03-29T03:27:33.909Z,100318.19
2023-03-29T03:28:36.583Z,100321.94
2023-03-29T03:29:38.591Z,100319.22
2023-03-29T03:30:41.490Z,100321.09
2023-03-29T03:31:44.776Z,100320.25
2023-03-29T03:32:47.862Z,100317.50
2023-03-29T03:33:49.609Z,100317.50
2023-03-29T03:34:52.281Z,100316.69
2023-03-29T03:35:57.013Z,100305.94
2023-03-29T03:37:01.821Z,100315.00
2023-03-29T03:38:05.885Z,100308.69
2023-03-29T03:39:07.590Z,100313.28
2023-03-29T03:40:13.980Z,100312.44
2023-03-29T03:41:16.016Z,100317.03
2023-03-29T03:42:18.666Z,100309.88
2023-03-29T03:43:20.623Z,100313.44
2023-03-29T03:44:23.534Z,100308.19
2023-03-29T03:45:25.818Z,100307.34
2023-03-29T03:46:29.805Z,100308.19
2023-03-29T03:47:32.974Z,100304.63
2023-03-29T03:48:37.145Z,100306.50
2023-03-29T03:49:38.872Z,100308.38
2023-03-29T03:50:41.738Z,100312.97
2023-03-29T03:51:45.385Z,100310.25
2023-03-29T03:52:48.117Z,100309.41
2023-03-29T03:53:50.233Z,100317.59
2023-03-29T03:54:52.883Z,100312.13
2023-03-29T03:55:56.029Z,100310.41
2023-03-29T03:56:58.961Z,100322.19
2023-03-29T03:58:00.675Z,100315.03
2023-03-29T03:59:03.355Z,100319.47
2023-03-29T04:00:10.159Z,100315.03
2023-03-29T04:01:12.839Z,100315.88
2023-03-29T04:02:15.585Z,100314.19
2023-03-29T04:03:19.993Z,100314.19
2023-03-29T04:04:23.045Z,100308.91
2023-03-29T04:05:25.726Z,100310.63
2023-03-29T04:06:30.538Z,100302.78
2023-03-29T04:07:34.341Z,100294.59
2023-03-29T04:08:36.156Z,100301.06
2023-03-29T04:09:38.904Z,100303.78
2023-03-29T04:10:40.876Z,100302.13
2023-03-29T04:11:43.768Z,100310.31
2023-03-29T04:12:45.615Z,100305.88
2023-03-29T04:13:48.265Z,100309.47
2023-03-29T04:14:49.984Z,100297.69
2023-03-29T04:15:54.351Z,100303.16
2023-03-29T04:16:56.171Z,100300.59
2023-03-29T04:17:59.881Z,100302.47
2023-03-29T04:19:03.071Z,100293.63
2023-03-29T04:20:11.593Z,100299.94
2023-03-29T04:21:13.490Z,100310.00
2023-03-29T04:22:16.378Z,100299.25
2023-03-29T04:23:19.400Z,100297.56
2023-03-29T04:24:21.084Z,100300.09
2023-03-29T04:25:23.894Z,100305.56
2023-03-29T04:26:25.923Z,100307.28
2023-03-29T04:27:28.617Z,100306.41
2023-03-29T04:28:31.035Z,100304.53
2023-03-29T04:29:33.700Z,100307.06
2023-03-29T04:30:35.591Z,100310.66
2023-03-29T04:31:38.373Z,100307.06
2023-03-29T04:32:40.081Z,100305.19
2023-03-29T04:33:42.935Z,100300.59
2023-03-29T04:34:45.973Z,100304.34
2023-03-29T04:35:48.849Z,100298.06
2023-03-29T04:36:50.604Z,100305.41
2023-03-29T04:37:54.560Z,100290.03
2023-03-29T04:38:56.367Z,100297.22
2023-03-29T04:40:00.312Z,100299.94
2023-03-29T04:41:02.615Z,100300.09
2023-03-29T04:42:05.953Z,100303.69
2023-03-29T04:43:07.829Z,100297.38
2023-03-29T04:44:10.754Z,100305.56
2023-03-29T04:45:13.986Z,100300.09
2023-03-29T04:46:17.036Z,100305.56
2023-03-29T04:47:19.437Z,100306.41
2023-03-29T04:48:22.493Z,100298.06
2023-03-29T04:49:26.014Z,100295.34
2023-03-29T04:50:30.870Z,100295.13
2023-03-29T04:51:33.175Z,100300.59
2023-03-29T04:52:36.097Z,100288.66
2023-03-29T04:53:38.062Z,100294.09
2023-03-29T04:54:41.092Z,100300.41
2023-03-29T04:55:42.780Z,100289.50
2023-03-29T04:56:45.531Z,100287.97
2023-03-29T04:57:47.264Z,100294.28
2023-03-29T04:58:50.894Z,100291.38
2023-03-29T04:59:52.729Z,100297.69
2023-03-29T05:00:56.658Z,100287.63
2023-03-29T05:01:58.767Z,100288.47
2023-03-29T05:03:01.636Z,100291.19
2023-03-29T05:04:03.503Z,100296.66
2023-03-29T05:05:06.437Z,100292.06
2023-03-29T05:06:12.029Z,100290.34
2023-03-29T05:07:15.593Z,100288.81
2023-03-29T05:08:17.767Z,100290.53
2023-03-29T05:09:21.114Z,100292.41
2023-03-29T05:10:23.466Z,100285.22
2023-03-29T05:11:26.248Z,100287.13
2023-03-29T05:12:27.926Z,100283.56
2023-03-29T05:13:30.893Z,100285.44
2023-03-29T05:14:32.590Z,100285.44
2023-03-29T05:15:35.377Z,100282.50
2023-03-29T05:16:38.186Z,100279.59
2023-03-29T05:17:41.008Z,100282.16
2023-03-29T05:18:42.995Z,100285.75
2023-03-29T05:19:45.952Z,100288.28
2023-03-29T05:20:47.705Z,100282.63
2023-03-29T05:21:53.135Z,100286.06
2023-03-29T05:22:54.891Z,100283.13
2023-03-29T05:23:57.674Z,100281.06
2023-03-29T05:24:59.414Z,100290.97
2023-03-29T05:26:02.618Z,100285.28
2023-03-29T05:27:04.932Z,100291.44
2023-03-29T05:28:07.576Z,100286.84
2023-03-29T05:29:09.536Z,100292.13
2023-03-29T05:30:13.361Z,100286.66
2023-03-29T05:31:16.952Z,100291.25
2023-03-29T05:32:20.059Z,100291.25
2023-03-29T05:33:22.730Z,100283.56
2023-03-29T05:34:25.088Z,100280.81
2023-03-29T05:35:29.044Z,100288.84
2023-03-29T05:36:30.960Z,100290.50
2023-03-29T05:37:35.054Z,100288.50
2023-03-29T05:38:38.200Z,100294.81
2023-03-29T05:39:39.932Z,100290.84
2023-03-29T05:40:42.782Z,100284.53
2023-03-29T05:41:44.679Z,100290.69
2023-03-29T05:42:47.616Z,100285.22
2023-03-29T05:43:49.355Z,100288.63
2023-03-29T05:44:53.425Z,100289.44
2023-03-29T05:45:56.882Z,100290.28
2023-03-29T05:46:59.569Z,100286.53
2023-03-29T05:48:01.472Z,100290.13
2023-03-29T05:49:04.248Z,100289.09
2023-03-29T05:50:09.717Z,100293.53
2023-03-29T05:51:12.466Z,100295.03
2023-03-29T05:52:14.650Z,100297.38
2023-03-29T05:53:19.496Z,100298.06
2023-03-29T05:54:21.543Z,100296.00
2023-03-29T05:55:24.193Z,100301.09
2023-03-29T05:56:26.947Z,100299.03
2023-03-29T05:57:29.906Z,100296.94
2023-03-29T05:58:31.664Z,100303.94
2023-03-29T05:59:34.721Z,100297.06
2023-03-29T06:00:40.435Z,100303.19
2023-03-29T06:01:42.735Z,100298.56
2023-03-29T06:02:45.656Z,100298.22
2023-03-29T06:03:47.562Z,100292.38
2023-03-29T06:04:51.567Z,100295.56
2023-03-29T06:05:58.612Z,100306.97
2023-03-29T06:07:02.162Z,100303.91
2023-03-29T06:08:05.146Z,100305.22
2023-03-29T06:09:09.121Z,100297.47
2023-03-29T06:10:14.021Z,100303.44
2023-03-29T06:11:17.606Z,100298.44
2023-03-29T06:12:20.158Z,100300.97
2023-03-29T06:13:23.448Z,100305.22
2023-03-29T06:14:27.203Z,100306.94
2023-03-29T06:15:30.055Z,100306.56
2023-03-29T06:16:32.505Z,100301.94
2023-03-29T06:17:35.398Z,100307.00
2023-03-29T06:18:39.719Z,100305.97
2023-03-29T06:19:41.472Z,100307.00
2023-03-29T06:20:44.240Z,100300.50
2023-03-29T06:21:45.941Z,100296.75
2023-03-29T06:22:48.869Z,100298.44
2023-03-29T06:23:51.595Z,100299.94
2023-03-29T06:24:54.899Z,100300.63
2023-03-29T06:25:58.029Z,100309.28
2023-03-29T06:26:59.910Z,100315.22
2023-03-29T06:28:02.620Z,100312.13
2023-03-29T06:29:04.374Z,100307.97
2023-03-29T06:30:08.353Z,100310.53
2023-03-29T06:31:13.156Z,100311.19
2023-03-29T06:32:14.978Z,100315.44
2023-03-29T06:33:18.797Z,100315.22
2023-03-29T06:34:22.471Z,100322.41
2023-03-29T06:35:24.235Z,100314.09
2023-03-29T06:36:26.885Z,100321.66
2023-03-29T06:37:30.243Z,100316.75
2023-03-29T06:38:34.173Z,100311.47
2023-03-29T06:39:35.831Z,100309.56
2023-03-29T06:40:40.167Z,100314.66
2023-03-29T06:41:43.272Z,100312.13
2023-03-29T06:42:45.942Z,100314.88
2023-03-29T06:43:48.631Z,100311.91
2023-03-29T06:44:50.338Z,100312.97
2023-03-29T06:45:53.069Z,100311.28
2023-03-29T06:46:55.857Z,100305.13
2023-03-29T06:47:57.609Z,100310.59
2023-03-29T06:49:01.069Z,100307.50
2023-03-29T06:50:04.066Z,100311.75
2023-03-29T06:51:07.632Z,100312.03
2023-03-29T06:52:10.237Z,100315.22
2023-03-29T06:53:13.302Z,100313.16
2023-03-29T06:54:14.986Z,100312.13
2023-03-29T06:55:18.437Z,100319.28
2023-03-29T06:56:22.291Z,100315.50
2023-03-29T06:57:27.334Z,100316.34
2023-03-29T06:58:29.065Z,100311.56
2023-03-29T06:59:31.762Z,100317.88
2023-03-29T07:00:37.229Z,100313.44
2023-03-29T07:01:39.106Z,100319.75
2023-03-29T07:02:42.211Z,100319.28
2023-03-29T07:03:46.686Z,100316.75
2023-03-29T07:04:49.697Z,100314.88
2023-03-29T07:05:52.196Z,100316.53
2023-03-29T07:07:01.603Z,100321.19
2023-03-29T07:08:13.933Z,100322.22
2023-03-29T07:09:17.712Z,100321.94
2023-03-29T07:10:22.850Z,100325.03
2023-03-29T07:11:26.898Z,100315.34
2023-03-29T07:12:29.578Z,100319.28
2023-03-29T07:13:32.986Z,100315.72
2023-03-29T07:14:35.914Z,100319.09
2023-03-29T07:15:37.774Z,100322.28
2023-03-29T07:16:40.497Z,100325.53
2023-03-29T07:17:42.428Z,100319.47
2023-03-29T07:18:45.374Z,100321.66
2023-03-29T07:19:48.829Z,100315.16
2023-03-29T07:20:52.252Z,100323.34
2023-03-29T07:21:54.320Z,100314.94
2023-03-29T07:22:57.383Z,100320.63
2023-03-29T07:24:00.106Z,100319.75
2023-03-29T07:25:01.806Z,100321.25
2023-03-29T07:26:05.706Z,100311.84
2023-03-29T07:27:08.906Z,100322.56
2023-03-29T07:28:11.630Z,100322.78
2023-03-29T07:29:14.323Z,100322.09
2023-03-29T07:30:18.401Z,100329.28
2023-03-29T07:31:21.173Z,100328.03
2023-03-29T07:32:24.009Z,100327.84
2023-03-29T07:33:26.835Z,100335.03
2023-03-29T07:34:30.022Z,100334.19
2023-03-29T07:35:32.975Z,100332.09
2023-03-29T07:36:34.729Z,100338.91
2023-03-29T07:37:37.947Z,100340.22
2023-03-29T07:38:40.672Z,100345.47
2023-03-29T07:39:42.524Z,100341.25
2023-03-29T07:40:45.238Z,100332.38
2023-03-29T07:41:46.982Z,100344.16
2023-03-29T07:42:53.056Z,100337.66
2023-03-29T07:43:56.421Z,100344.84
2023-03-29T07:44:58.545Z,100343.59
2023-03-29T07:46:02.360Z,100343.59
2023-03-29T07:47:05.511Z,100346.19
2023-03-29T07:48:08.396Z,100346.47
2023-03-29T07:49:11.218Z,100341.44
2023-03-29T07:50:14.557Z,100344.19
2023-03-29T07:51:17.386Z,100341.72
2023-03-29T07:52:20.071Z,100344.91
2023-03-29T07:53:23.112Z,100347.28
2023-03-29T07:54:25.865Z,100346.53
2023-03-29T07:55:27.636Z,100347.25
2023-03-29T07:56:30.279Z,100350.28
2023-03-29T07:57:32.079Z,100351.41
2023-03-29T07:58:36.265Z,100355.44
2023-03-29T07:59:38.980Z,100354.00
2023-03-29T08:00:43.522Z,100354.63
2023-03-29T08:01:46.203Z,100352.56
2023-03-29T08:02:49.797Z,100354.72
2023-03-29T08:03:53.165Z,100358.13
2023-03-29T08:04:56.922Z,100353.69
2023-03-29T08:06:02.107Z,100362.53
2023-03-29T08:07:04.822Z,100358.56
2023-03-29T08:08:07.888Z,100352.06
2023-03-29T08:09:09.562Z,100352.69
2023-03-29T08:10:15.271Z,100347.03
2023-03-29T08:11:17.761Z,100346.84
2023-03-29T08:12:22.052Z,100349.09
2023-03-29T08:13:26.585Z,100346.19
2023-03-29T08:14:29.741Z,100347.47
2023-03-29T08:15:32.596Z,100349.00
2023-03-29T08:16:35.363Z,100345.66
2023-03-29T08:17:37.471Z,100344.69
2023-03-29T08:18:40.234Z,100347.50
2023-03-29T08:19:42.405Z,100344.16
2023-03-29T08:20:54.029Z,100345.44
2023-03-29T08:21:55.759Z,100344.84
2023-03-29T08:22:58.468Z,100336.03
2023-03-29T08:24:00.137Z,100341.97
2023-03-29T08:25:02.902Z,100333.97
2023-03-29T08:26:06.054Z,100331.84
2023-03-29T08:27:07.963Z,100324.47
2023-03-29T08:28:10.659Z,100338.63
2023-03-29T08:29:12.441Z,100338.72
2023-03-29T08:30:16.680Z,100332.81
2023-03-29T08:31:18.409Z,100335.81
2023-03-29T08:32:21.411Z,100332.47
2023-03-29T08:33:23.221Z,100335.03
2023-03-29T08:34:25.926Z,100336.53
2023-03-29T08:35:28.780Z,100327.69
2023-03-29T08:36:30.579Z,100327.72
2023-03-29T08:37:33.336Z,100331.31
2023-03-29T08:38:36.054Z,100320.59
2023-03-29T08:39:37.760Z,100334.75
2023-03-29T08:40:41.323Z,100318.94
2023-03-29T08:41:53.310Z,100323.63
2023-03-29T08:43:15.880Z,100333.34
2023-03-29T08:44:24.943Z,100330.78
2023-03-29T08:45:33.783Z,100333.16
2023-03-29T08:46:42.300Z,100333.16
2023-03-29T08:47:51.469Z,100328.91
2023-03-29T08:48:56.472Z,100324.25
2023-03-29T08:49:59.261Z,100326.81
2023-03-29T08:51:03.867Z,100322.59
2023-03-29T08:52:13.370Z,100323.44
2023-03-29T08:53:18.057Z,100323.03
2023-03-29T08:54:24.965Z,100326.03
2023-03-29T08:55:32.055Z,100325.63
2023-03-29T08:56:37.355Z,100316.56
2023-03-29T08:57:42.642Z,100327.56
2023-03-29T08:58:46.653Z,100330.75
2023-03-29T08:59:51.686Z,100329.28
2023-03-29T09:00:57.856Z,100328.91
2023-03-29T09:02:00.852Z,100326.56
2023-03-29T09:03:04.605Z,100333.34
2023-03-29T09:04:10.167Z,100325.53
2023-03-29T09:05:20.437Z,100340.53
2023-03-29T09:06:23.161Z,100335.91
2023-03-29T09:07:26.657Z,100339.50
2023-03-29T09:08:29.526Z,100341.41
2023-03-29T09:09:33.242Z,100335.47
2023-03-29T09:10:40.922Z,100333.38
2023-03-29T09:11:53.361Z,100342.69
2023-03-29T09:13:06.727Z,100339.06
2023-03-29T09:14:27.447Z,100338.00
2023-03-29T09:15:33.141Z,100336.94
2023-03-29T09:16:39.677Z,100334.84
2023-03-29T09:17:49.917Z,100340.34
2023-03-29T09:19:01.354Z,100336.38
2023-03-29T09:20:12.959Z,100335.59
2023-03-29T09:21:18.947Z,100342.34
2023-03-29T09:22:25.331Z,100334.09
2023-03-29T09:23:50.323Z,100339.19
2023-03-29T09:25:00.901Z,100337.50
2023-03-29T09:26:06.386Z,100337.50
2023-03-29T09:27:11.380Z,100337.31
2023-03-29T09:28:15.778Z,100337.94
2023-03-29T09:29:30.600Z,100335.84
2023-03-29T09:30:36.302Z,100332.47
2023-03-29T09:31:43.962Z,100340.28
2023-03-29T09:32:49.873Z,100335.19
2023-03-29T09:33:57.142Z,100338.19
2023-03-29T09:35:04.416Z,100334.56
2023-03-29T09:36:11.802Z,100330.97
2023-03-29T09:37:24.719Z,100327.78
2023-03-29T09:38:27.888Z,100327.97
2023-03-29T09:39:31.000Z,100325.25
2023-03-29T09:40:36.012Z,100334.75
2023-03-29T09:41:41.208Z,100324.63
2023-03-29T09:42:45.030Z,100327.53
2023-03-29T09:43:47.487Z,100325.88
2023-03-29T09:44:53.094Z,100323.31
2023-03-29T09:46:01.862Z,100321.22
2023-03-29T09:47:10.995Z,100325.88
2023-03-29T09:48:20.730Z,100317.81
2023-03-29T09:49:27.460Z,100322.88
2023-03-29T09:50:32.811Z,100318.25
2023-03-29T09:51:34.935Z,100314.69
2023-03-29T09:52:37.709Z,100321.25
2023-03-29T09:53:40.463Z,100316.38
2023-03-29T09:54:43.355Z,100320.00
2023-03-29T09:55:46.713Z,100313.25
2023-03-29T09:56:52.567Z,100314.28
2023-03-29T09:57:56.097Z,100311.75
2023-03-29T09:58:58.795Z,100324.66
2023-03-29T10:00:05.586Z,100324.03
2023-03-29T10:01:09.288Z,100326.16
2023-03-29T10:02:14.727Z,100317.06
2023-03-29T10:03:21.883Z,100330.81
2023-03-29T10:04:27.358Z,100334.19
2023-03-29T10:05:31.973Z,100327.00
2023-03-29T10:06:35.462Z,100320.88
2023-03-29T10:07:44.692Z,100330.59
2023-03-29T10:08:48.841Z,100323.63
2023-03-29T10:09:52.616Z,100322.56
2023-03-29T10:10:55.865Z,100326.59
2023-03-29T10:12:02.208Z,100327.44
2023-03-29T10:13:06.000Z,100317.06
2023-03-29T10:14:14.247Z,100323.00
2023-03-29T10:15:28.699Z,100321.69
2023-03-29T10:16:37.459Z,100316.66
2023-03-29T10:17:43.423Z,100319.16
2023-03-29T10:18:45.170Z,100314.72
2023-03-29T10:19:50.041Z,100319.81
2023-03-29T10:20:59.545Z,100320.44
2023-03-29T10:22:04.391Z,100312.19
2023-03-29T10:23:08.018Z,100313.88
2023-03-29T10:24:11.463Z,100309.84
2023-03-29T10:25:14.199Z,100306.03
2023-03-29T10:26:25.016Z,100313.03
2023-03-29T10:27:28.890Z,100301.19
2023-03-29T10:28:32.043Z,100295.88
2023-03-29T10:29:37.689Z,100298.41
2023-03-29T10:30:40.859Z,100299.69
2023-03-29T10:31:43.655Z,100299.25
2023-03-29T10:32:47.209Z,100290.59
2023-03-29T10:33:54.311Z,100288.69
2023-03-29T10:34:59.998Z,100289.13
2023-03-29T10:36:05.913Z,100284.03
2023-03-29T10:37:10.411Z,100277.66
2023-03-29T10:38:15.025Z,100285.69
2023-03-29T10:39:17.898Z,100279.09
2023-03-29T10:40:22.220Z,100286.88
2023-03-29T10:41:26.072Z,100273.09
2023-03-29T10:42:29.442Z,100278.81
2023-03-29T10:43:36.092Z,100262.22
2023-03-29T10:44:38.787Z,100262.66
2023-03-29T10:45:41.390Z,100261.56
2023-03-29T10:46:44.676Z,100263.63
2023-03-29T10:47:49.313Z,100255.28
2023-03-29T10:48:52.626Z,100260.78
2023-03-29T10:49:57.299Z,100262.38
2023-03-29T10:51:01.312Z,100267.41
2023-03-29T10:52:08.185Z,100266.06
2023-03-29T10:53:15.013Z,100267.47
2023-03-29T10:54:20.975Z,100266.56
2023-03-29T10:55:27.268Z,100267.13
2023-03-29T10:56:40.386Z,100264.28
2023-03-29T10:57:51.390Z,100257.66
2023-03-29T10:59:28.142Z,100259.28
2023-03-29T11:00:32.704Z,100266.19
2023-03-29T11:01:40.518Z,100258.91
2023-03-29T11:03:08.894Z,100255.66
2023-03-29T11:04:23.035Z,100254.53
2023-03-29T11:05:29.430Z,100260.66
2023-03-29T11:06:36.222Z,100246.16
2023-03-29T11:07:46.662Z,100249.91
2023-03-29T11:08:55.659Z,100246.25
2023-03-29T11:10:04.879Z,100256.97
2023-03-29T11:11:16.822Z,100245.84
2023-03-29T11:12:24.159Z,100244.47
2023-03-29T11:13:32.082Z,100239.94
2023-03-29T11:14:41.884Z,100246.81
2023-03-29T11:15:51.951Z,100244.56
2023-03-29T11:17:02.544Z,100256.00
2023-03-29T11:18:19.478Z,100255.25
2023-03-29T11:19:42.304Z,100257.41
2023-03-29T11:20:46.243Z,100259.78
2023-03-29T11:21:53.829Z,100262.63
2023-03-29T11:23:01.105Z,100252.91
2023-03-29T11:24:22.341Z,100262.72
2023-03-29T11:25:32.088Z,100270.63
2023-03-29T11:26:38.665Z,100269.25
2023-03-29T11:27:47.428Z,100255.84
2023-03-29T11:28:53.169Z,100266.97
2023-03-29T11:30:06.394Z,100260.09
2023-03-29T11:31:16.833Z,100257.50
2023-03-29T11:32:23.375Z,100255.16
2023-03-29T11:33:38.739Z,100257.81
2023-03-29T11:34:52.472Z,100262.63
2023-03-29T11:35:59.113Z,100260.00
2023-03-29T11:37:05.858Z,100253.78
2023-03-29T11:38:13.870Z,100259.72
2023-03-29T11:39:23.514Z,100255.63
2023-03-29T11:40:36.621Z,100258.53
2023-03-29T11:41:42.429Z,100246.19
2023-03-29T11:42:47.169Z,100261.00
2023-03-29T11:43:54.975Z,100256.94
2023-03-29T11:44:59.646Z,100254.25
2023-03-29T11:46:08.697Z,100247.78
2023-03-29T11:47:13.982Z,100253.47
2023-03-29T11:48:21.252Z,100244.31
2023-03-29T11:49:28.376Z,100250.78
2023-03-29T11:50:35.325Z,100243.47
2023-03-29T11:51:43.494Z,100235.94
2023-03-29T11:52:51.034Z,100234.13
2023-03-29T11:54:01.553Z,100234.25
2023-03-29T11:55:07.488Z,100238.38
2023-03-29T11:56:14.370Z,100231.44
2023-03-29T11:57:22.530Z,100232.16
2023-03-29T11:58:31.027Z,100236.47
2023-03-29T11:59:37.219Z,100228.31
2023-03-29T12:00:41.373Z,100243.72
2023-03-29T12:01:47.420Z,100245.06
2023-03-29T12:02:52.366Z,100238.78
2023-03-29T12:03:56.985Z,100228.94
2023-03-29T12:05:06.373Z,100230.47
2023-03-29T12:06:13.275Z,100243.25
2023-03-29T12:07:18.360Z,100236.63
2023-03-29T12:08:23.503Z,100242.78
2023-03-29T12:09:31.638Z,100231.56
2023-03-29T12:10:36.338Z,100237.53
2023-03-29T12:11:41.849Z,100235.69
2023-03-29T12:12:47.183Z,100225.59
2023-03-29T12:13:53.551Z,100225.38
2023-03-29T12:15:02.198Z,100229.44
2023-03-29T12:16:11.218Z,100226.06
2023-03-29T12:17:15.655Z,100212.22
2023-03-29T12:18:21.446Z,100223.78